sensor_id;sensor_type;location;lat;lon;timestamp;P1;durP1;ratioP1;P2;durP2;ratioP2
40695;SDS011;40425;51.102;17.208;2022-08-21T00:03:13;11.77;;;10.40;;
40695;SDS011;40425;51.102;17.208;2022-08-21T00:08:14;18.13;;;12.50;;
40695;SDS011;40425;51.102;17.208;2022-08-21T00:13:16;16.90;;;12.98;;
40695;SDS011;40425;51.102;17.208;2022-08-21T00:18:19;21.02;;;14.88;;
40695;SDS011;40425;51.102;17.208;2022-08-21T00:23:21;16.33;;;14.73;;
40695;SDS011;40425;51.102;17.208;2022-08-21T00:28:21;17.55;;;14.82;;
40695;SDS011;40425;51.102;17.208;2022-08-21T00:33:23;22.23;;;16.55;;
40695;SDS011;40425;51.102;17.208;2022-08-21T00:38:24;21.88;;;15.50;;
40695;SDS011;40425;51.102;17.208;2022-08-21T00:43:26;22.40;;;17.20;;
40695;SDS011;40425;51.102;17.208;2022-08-21T00:48:34;32.13;;;18.80;;
40695;SDS011;40425;51.102;17.208;2022-08-21T00:53:36;30.40;;;20.90;;
40695;SDS011;40425;51.102;17.208;2022-08-21T00:58:40;37.50;;;21.05;;
40695;SDS011;40425;51.102;17.208;2022-08-21T01:03:42;34.15;;;21.48;;
40695;SDS011;40425;51.102;17.208;2022-08-21T01:08:44;25.77;;;18.60;;
40695;SDS011;40425;51.102;17.208;2022-08-21T01:13:45;29.13;;;19.70;;
40695;SDS011;40425;51.102;17.208;2022-08-21T01:18:47;33.50;;;20.38;;
40695;SDS011;40425;51.102;17.208;2022-08-21T01:23:50;28.48;;;20.17;;
40695;SDS011;40425;51.102;17.208;2022-08-21T01:28:57;28.70;;;19.42;;
40695;SDS011;40425;51.102;17.208;2022-08-21T01:34:01;34.33;;;20.40;;
40695;SDS011;40425;51.102;17.208;2022-08-21T01:39:03;33.53;;;19.63;;
40695;SDS011;40425;51.102;17.208;2022-08-21T01:44:05;28.48;;;17.75;;
40695;SDS011;40425;51.102;17.208;2022-08-21T01:49:06;31.38;;;19.73;;
40695;SDS011;40425;51.102;17.208;2022-08-21T01:54:08;30.48;;;18.55;;
40695;SDS011;40425;51.102;17.208;2022-08-21T01:59:09;25.73;;;16.20;;
40695;SDS011;40425;51.102;17.208;2022-08-21T02:04:10;24.10;;;16.40;;
40695;SDS011;40425;51.102;17.208;2022-08-21T02:09:12;26.17;;;16.17;;
40695;SDS011;40425;51.102;17.208;2022-08-21T02:14:14;25.88;;;15.32;;
40695;SDS011;40425;51.102;17.208;2022-08-21T02:19:16;22.80;;;14.25;;
40695;SDS011;40425;51.102;17.208;2022-08-21T02:24:17;18.50;;;13.27;;
40695;SDS011;40425;51.102;17.208;2022-08-21T02:29:18;23.48;;;11.68;;
40695;SDS011;40425;51.102;17.208;2022-08-21T02:34:19;20.08;;;13.20;;
40695;SDS011;40425;51.102;17.208;2022-08-21T02:39:21;17.10;;;11.85;;
40695;SDS011;40425;51.102;17.208;2022-08-21T02:44:22;13.65;;;10.80;;
40695;SDS011;40425;51.102;17.208;2022-08-21T02:49:23;13.07;;;9.93;;
40695;SDS011;40425;51.102;17.208;2022-08-21T02:54:23;10.55;;;8.70;;
40695;SDS011;40425;51.102;17.208;2022-08-21T02:59:24;14.07;;;7.78;;
40695;SDS011;40425;51.102;17.208;2022-08-21T03:04:25;7.40;;;6.57;;
40695;SDS011;40425;51.102;17.208;2022-08-21T03:09:26;7.25;;;5.03;;
40695;SDS011;40425;51.102;17.208;2022-08-21T03:14:27;6.82;;;4.57;;
40695;SDS011;40425;51.102;17.208;2022-08-21T03:19:28;5.53;;;4.75;;
40695;SDS011;40425;51.102;17.208;2022-08-21T03:24:29;5.97;;;4.90;;
40695;SDS011;40425;51.102;17.208;2022-08-21T03:29:30;7.30;;;4.45;;
40695;SDS011;40425;51.102;17.208;2022-08-21T03:34:31;6.80;;;5.35;;
40695;SDS011;40425;51.102;17.208;2022-08-21T03:39:32;7.32;;;5.10;;
40695;SDS011;40425;51.102;17.208;2022-08-21T03:44:34;6.15;;;5.03;;
40695;SDS011;40425;51.102;17.208;2022-08-21T03:49:36;7.22;;;5.97;;
40695;SDS011;40425;51.102;17.208;2022-08-21T03:54:37;8.38;;;6.80;;
40695;SDS011;40425;51.102;17.208;2022-08-21T03:59:41;9.43;;;7.05;;
40695;SDS011;40425;51.102;17.208;2022-08-21T04:04:43;8.30;;;6.53;;
40695;SDS011;40425;51.102;17.208;2022-08-21T04:09:44;7.88;;;6.72;;
40695;SDS011;40425;51.102;17.208;2022-08-21T04:14:45;8.63;;;7.45;;
40695;SDS011;40425;51.102;17.208;2022-08-21T04:19:45;6.93;;;6.22;;
40695;SDS011;40425;51.102;17.208;2022-08-21T04:24:46;10.40;;;7.13;;
40695;SDS011;40425;51.102;17.208;2022-08-21T04:29:47;9.90;;;6.55;;
40695;SDS011;40425;51.102;17.208;2022-08-21T04:34:48;8.38;;;6.60;;
40695;SDS011;40425;51.102;17.208;2022-08-21T04:39:49;7.32;;;6.43;;
40695;SDS011;40425;51.102;17.208;2022-08-21T04:44:50;7.05;;;6.45;;
40695;SDS011;40425;51.102;17.208;2022-08-21T04:49:51;7.15;;;6.03;;
40695;SDS011;40425;51.102;17.208;2022-08-21T04:54:52;8.00;;;6.07;;
40695;SDS011;40425;51.102;17.208;2022-08-21T04:59:53;7.90;;;6.22;;
40695;SDS011;40425;51.102;17.208;2022-08-21T05:04:54;7.15;;;6.45;;
40695;SDS011;40425;51.102;17.208;2022-08-21T05:09:55;11.63;;;5.88;;
40695;SDS011;40425;51.102;17.208;2022-08-21T05:14:57;8.98;;;6.05;;
40695;SDS011;40425;51.102;17.208;2022-08-21T05:19:58;10.00;;;5.93;;
40695;SDS011;40425;51.102;17.208;2022-08-21T05:24:59;6.82;;;5.65;;
40695;SDS011;40425;51.102;17.208;2022-08-21T05:30:00;5.60;;;4.28;;
40695;SDS011;40425;51.102;17.208;2022-08-21T05:35:02;10.23;;;4.53;;
40695;SDS011;40425;51.102;17.208;2022-08-21T05:40:04;13.63;;;4.95;;
40695;SDS011;40425;51.102;17.208;2022-08-21T05:45:07;9.82;;;6.38;;
40695;SDS011;40425;51.102;17.208;2022-08-21T05:50:09;11.30;;;5.25;;
40695;SDS011;40425;51.102;17.208;2022-08-21T05:55:10;7.80;;;4.30;;
40695;SDS011;40425;51.102;17.208;2022-08-21T06:00:11;8.57;;;4.25;;
40695;SDS011;40425;51.102;17.208;2022-08-21T06:05:13;9.07;;;5.07;;
40695;SDS011;40425;51.102;17.208;2022-08-21T06:10:15;8.60;;;4.43;;
40695;SDS011;40425;51.102;17.208;2022-08-21T06:15:16;6.63;;;4.68;;
40695;SDS011;40425;51.102;17.208;2022-08-21T06:20:17;5.18;;;4.30;;
40695;SDS011;40425;51.102;17.208;2022-08-21T06:25:18;7.82;;;4.75;;
40695;SDS011;40425;51.102;17.208;2022-08-21T06:30:19;6.65;;;4.25;;
40695;SDS011;40425;51.102;17.208;2022-08-21T06:35:20;5.53;;;4.07;;
40695;SDS011;40425;51.102;17.208;2022-08-21T06:40:21;10.63;;;4.18;;
40695;SDS011;40425;51.102;17.208;2022-08-21T06:45:24;6.07;;;3.83;;
40695;SDS011;40425;51.102;17.208;2022-08-21T06:50:25;5.10;;;3.75;;
40695;SDS011;40425;51.102;17.208;2022-08-21T06:55:27;6.15;;;4.53;;
40695;SDS011;40425;51.102;17.208;2022-08-21T07:00:28;7.03;;;5.18;;
40695;SDS011;40425;51.102;17.208;2022-08-21T07:05:29;8.50;;;6.28;;
40695;SDS011;40425;51.102;17.208;2022-08-21T07:10:31;12.90;;;6.28;;
40695;SDS011;40425;51.102;17.208;2022-08-21T07:15:31;11.45;;;8.40;;
40695;SDS011;40425;51.102;17.208;2022-08-21T07:20:33;16.80;;;11.20;;
40695;SDS011;40425;51.102;17.208;2022-08-21T07:25:34;22.25;;;12.13;;
40695;SDS011;40425;51.102;17.208;2022-08-21T07:30:36;21.92;;;14.13;;
40695;SDS011;40425;51.102;17.208;2022-08-21T07:35:37;22.17;;;14.57;;
40695;SDS011;40425;51.102;17.208;2022-08-21T07:40:38;22.77;;;13.60;;
40695;SDS011;40425;51.102;17.208;2022-08-21T07:45:39;16.52;;;11.73;;
40695;SDS011;40425;51.102;17.208;2022-08-21T07:50:40;21.75;;;11.90;;
40695;SDS011;40425;51.102;17.208;2022-08-21T07:55:42;21.83;;;12.40;;
40695;SDS011;40425;51.102;17.208;2022-08-21T08:00:43;25.05;;;12.10;;
40695;SDS011;40425;51.102;17.208;2022-08-21T08:05:44;21.60;;;12.45;;
40695;SDS011;40425;51.102;17.208;2022-08-21T08:10:45;19.20;;;11.60;;
40695;SDS011;40425;51.102;17.208;2022-08-21T08:15:46;21.85;;;10.27;;
40695;SDS011;40425;51.102;17.208;2022-08-21T08:20:47;14.35;;;10.05;;
40695;SDS011;40425;51.102;17.208;2022-08-21T08:25:52;16.88;;;9.93;;
40695;SDS011;40425;51.102;17.208;2022-08-21T08:30:58;15.27;;;9.40;;
40695;SDS011;40425;51.102;17.208;2022-08-21T08:36:01;17.55;;;10.70;;
40695;SDS011;40425;51.102;17.208;2022-08-21T08:41:17;16.83;;;9.13;;
40695;SDS011;40425;51.102;17.208;2022-08-21T08:46:31;19.92;;;11.43;;
40695;SDS011;40425;51.102;17.208;2022-08-21T08:57:16;12.93;;;9.75;;
40695;SDS011;40425;51.102;17.208;2022-08-21T09:02:22;13.98;;;9.20;;
40695;SDS011;40425;51.102;17.208;2022-08-21T09:07:31;18.23;;;10.20;;
40695;SDS011;40425;51.102;17.208;2022-08-21T09:23:31;7.55;;;6.28;;
40695;SDS011;40425;51.102;17.208;2022-08-21T09:28:56;8.52;;;5.90;;
40695;SDS011;40425;51.102;17.208;2022-08-21T09:34:03;9.35;;;6.80;;
40695;SDS011;40425;51.102;17.208;2022-08-21T09:39:10;9.20;;;6.35;;
40695;SDS011;40425;51.102;17.208;2022-08-21T09:44:13;9.48;;;7.47;;
40695;SDS011;40425;51.102;17.208;2022-08-21T09:49:30;9.55;;;6.40;;
40695;SDS011;40425;51.102;17.208;2022-08-21T09:54:39;10.15;;;6.10;;
40695;SDS011;40425;51.102;17.208;2022-08-21T09:59:47;7.43;;;5.25;;
40695;SDS011;40425;51.102;17.208;2022-08-21T10:04:53;5.45;;;4.43;;
40695;SDS011;40425;51.102;17.208;2022-08-21T10:09:59;8.40;;;5.13;;
40695;SDS011;40425;51.102;17.208;2022-08-21T10:15:10;6.50;;;4.97;;
40695;SDS011;40425;51.102;17.208;2022-08-21T10:20:29;7.70;;;5.65;;
40695;SDS011;40425;51.102;17.208;2022-08-21T10:31:15;8.48;;;5.18;;
40695;SDS011;40425;51.102;17.208;2022-08-21T10:36:33;7.78;;;4.65;;
40695;SDS011;40425;51.102;17.208;2022-08-21T10:41:57;5.75;;;4.53;;
40695;SDS011;40425;51.102;17.208;2022-08-21T10:47:23;11.90;;;4.78;;
40695;SDS011;40425;51.102;17.208;2022-08-21T10:57:59;11.13;;;3.92;;
40695;SDS011;40425;51.102;17.208;2022-08-21T11:03:07;8.07;;;4.32;;
40695;SDS011;40425;51.102;17.208;2022-08-21T11:08:44;6.82;;;3.78;;
40695;SDS011;40425;51.102;17.208;2022-08-21T11:13:52;6.82;;;3.95;;
40695;SDS011;40425;51.102;17.208;2022-08-21T11:19:45;6.90;;;3.92;;
40695;SDS011;40425;51.102;17.208;2022-08-21T11:30:17;7.13;;;5.70;;
40695;SDS011;40425;51.102;17.208;2022-08-21T11:45:53;13.85;;;6.90;;
40695;SDS011;40425;51.102;17.208;2022-08-21T11:51:00;12.50;;;6.63;;
40695;SDS011;40425;51.102;17.208;2022-08-21T11:56:11;9.10;;;6.57;;
40695;SDS011;40425;51.102;17.208;2022-08-21T12:01:21;16.15;;;6.90;;
40695;SDS011;40425;51.102;17.208;2022-08-21T12:06:36;16.30;;;7.65;;
40695;SDS011;40425;51.102;17.208;2022-08-21T12:11:47;12.55;;;6.53;;
40695;SDS011;40425;51.102;17.208;2022-08-21T12:16:50;11.50;;;6.47;;
40695;SDS011;40425;51.102;17.208;2022-08-21T12:21:54;9.38;;;6.60;;
40695;SDS011;40425;51.102;17.208;2022-08-21T12:38:28;6.88;;;5.55;;
40695;SDS011;40425;51.102;17.208;2022-08-21T12:43:20;8.30;;;3.28;;
40695;SDS011;40425;51.102;17.208;2022-08-21T12:48:44;7.40;;;4.13;;
40695;SDS011;40425;51.102;17.208;2022-08-21T12:53:58;6.22;;;3.90;;
40695;SDS011;40425;51.102;17.208;2022-08-21T12:59:01;10.10;;;3.90;;
40695;SDS011;40425;51.102;17.208;2022-08-21T13:04:10;7.22;;;4.60;;
40695;SDS011;40425;51.102;17.208;2022-08-21T13:09:18;4.88;;;4.38;;
40695;SDS011;40425;51.102;17.208;2022-08-21T13:14:37;10.35;;;5.00;;
40695;SDS011;40425;51.102;17.208;2022-08-21T13:19:40;6.50;;;4.20;;
40695;SDS011;40425;51.102;17.208;2022-08-21T13:24:41;8.52;;;4.80;;
40695;SDS011;40425;51.102;17.208;2022-08-21T13:29:42;7.68;;;3.90;;
40695;SDS011;40425;51.102;17.208;2022-08-21T13:34:43;8.05;;;4.40;;
40695;SDS011;40425;51.102;17.208;2022-08-21T13:39:48;9.15;;;4.13;;
40695;SDS011;40425;51.102;17.208;2022-08-21T13:44:52;9.07;;;4.45;;
40695;SDS011;40425;51.102;17.208;2022-08-21T13:49:54;7.90;;;3.92;;
40695;SDS011;40425;51.102;17.208;2022-08-21T13:54:59;8.50;;;3.92;;
40695;SDS011;40425;51.102;17.208;2022-08-21T14:00:10;5.47;;;4.10;;
40695;SDS011;40425;51.102;17.208;2022-08-21T14:05:22;6.35;;;4.00;;
40695;SDS011;40425;51.102;17.208;2022-08-21T14:10:27;8.20;;;4.20;;
40695;SDS011;40425;51.102;17.208;2022-08-21T14:15:32;8.45;;;4.65;;
40695;SDS011;40425;51.102;17.208;2022-08-21T14:20:35;9.75;;;4.85;;
40695;SDS011;40425;51.102;17.208;2022-08-21T14:25:41;8.20;;;5.00;;
40695;SDS011;40425;51.102;17.208;2022-08-21T14:30:44;7.40;;;5.05;;
40695;SDS011;40425;51.102;17.208;2022-08-21T14:35:45;8.75;;;5.13;;
40695;SDS011;40425;51.102;17.208;2022-08-21T14:40:49;6.72;;;5.97;;
40695;SDS011;40425;51.102;17.208;2022-08-21T14:45:52;5.57;;;5.07;;
40695;SDS011;40425;51.102;17.208;2022-08-21T14:50:54;6.72;;;4.53;;
40695;SDS011;40425;51.102;17.208;2022-08-21T14:55:55;7.63;;;5.05;;
40695;SDS011;40425;51.102;17.208;2022-08-21T15:01:06;8.93;;;5.13;;
40695;SDS011;40425;51.102;17.208;2022-08-21T15:06:09;6.03;;;5.43;;
40695;SDS011;40425;51.102;17.208;2022-08-21T15:11:19;7.65;;;4.70;;
40695;SDS011;40425;51.102;17.208;2022-08-21T15:16:23;8.55;;;5.90;;
40695;SDS011;40425;51.102;17.208;2022-08-21T15:21:24;10.57;;;5.65;;
40695;SDS011;40425;51.102;17.208;2022-08-21T15:26:25;6.70;;;5.72;;
40695;SDS011;40425;51.102;17.208;2022-08-21T15:31:27;12.10;;;5.85;;
40695;SDS011;40425;51.102;17.208;2022-08-21T15:36:28;8.35;;;5.43;;
40695;SDS011;40425;51.102;17.208;2022-08-21T15:41:29;9.30;;;5.40;;
40695;SDS011;40425;51.102;17.208;2022-08-21T15:46:30;5.80;;;5.10;;
40695;SDS011;40425;51.102;17.208;2022-08-21T15:51:32;7.95;;;5.07;;
40695;SDS011;40425;51.102;17.208;2022-08-21T15:56:36;6.00;;;5.30;;
40695;SDS011;40425;51.102;17.208;2022-08-21T16:01:40;5.68;;;4.70;;
40695;SDS011;40425;51.102;17.208;2022-08-21T16:06:42;5.75;;;4.63;;
40695;SDS011;40425;51.102;17.208;2022-08-21T16:11:43;4.88;;;4.35;;
40695;SDS011;40425;51.102;17.208;2022-08-21T16:16:45;6.60;;;4.63;;
40695;SDS011;40425;51.102;17.208;2022-08-21T16:21:47;5.80;;;4.78;;
40695;SDS011;40425;51.102;17.208;2022-08-21T16:26:49;4.53;;;4.13;;
40695;SDS011;40425;51.102;17.208;2022-08-21T16:31:50;5.45;;;4.93;;
40695;SDS011;40425;51.102;17.208;2022-08-21T16:36:51;4.88;;;4.38;;
40695;SDS011;40425;51.102;17.208;2022-08-21T16:41:52;6.07;;;4.63;;
40695;SDS011;40425;51.102;17.208;2022-08-21T16:46:53;4.65;;;4.18;;
40695;SDS011;40425;51.102;17.208;2022-08-21T16:51:55;6.95;;;4.57;;
40695;SDS011;40425;51.102;17.208;2022-08-21T16:56:56;4.22;;;3.88;;
40695;SDS011;40425;51.102;17.208;2022-08-21T17:01:58;6.53;;;4.45;;
40695;SDS011;40425;51.102;17.208;2022-08-21T17:06:59;5.13;;;3.95;;
40695;SDS011;40425;51.102;17.208;2022-08-21T17:11:59;4.78;;;3.53;;
40695;SDS011;40425;51.102;17.208;2022-08-21T17:17:00;6.53;;;4.45;;
40695;SDS011;40425;51.102;17.208;2022-08-21T17:22:03;5.32;;;4.93;;
40695;SDS011;40425;51.102;17.208;2022-08-21T17:27:06;6.47;;;5.10;;
40695;SDS011;40425;51.102;17.208;2022-08-21T17:32:10;7.07;;;6.13;;
40695;SDS011;40425;51.102;17.208;2022-08-21T17:37:15;7.07;;;6.38;;
40695;SDS011;40425;51.102;17.208;2022-08-21T17:42:16;6.43;;;5.32;;
40695;SDS011;40425;51.102;17.208;2022-08-21T17:47:18;5.72;;;5.20;;
40695;SDS011;40425;51.102;17.208;2022-08-21T17:52:19;6.03;;;5.50;;
40695;SDS011;40425;51.102;17.208;2022-08-21T17:57:21;8.30;;;4.90;;
40695;SDS011;40425;51.102;17.208;2022-08-21T18:02:27;5.28;;;4.05;;
40695;SDS011;40425;51.102;17.208;2022-08-21T18:07:31;3.50;;;2.97;;
40695;SDS011;40425;51.102;17.208;2022-08-21T18:12:32;5.05;;;2.95;;
40695;SDS011;40425;51.102;17.208;2022-08-21T18:17:34;5.72;;;3.53;;
40695;SDS011;40425;51.102;17.208;2022-08-21T18:22:38;4.60;;;2.90;;
40695;SDS011;40425;51.102;17.208;2022-08-21T18:27:42;5.78;;;2.83;;
40695;SDS011;40425;51.102;17.208;2022-08-21T18:32:45;6.63;;;2.20;;
40695;SDS011;40425;51.102;17.208;2022-08-21T18:37:50;3.28;;;2.72;;
40695;SDS011;40425;51.102;17.208;2022-08-21T18:42:54;2.65;;;2.33;;
40695;SDS011;40425;51.102;17.208;2022-08-21T18:47:56;3.00;;;2.15;;
40695;SDS011;40425;51.102;17.208;2022-08-21T18:53:03;4.88;;;2.15;;
40695;SDS011;40425;51.102;17.208;2022-08-21T18:58:08;3.25;;;2.50;;
40695;SDS011;40425;51.102;17.208;2022-08-21T19:03:12;3.92;;;2.53;;
40695;SDS011;40425;51.102;17.208;2022-08-21T19:08:18;3.63;;;2.25;;
40695;SDS011;40425;51.102;17.208;2022-08-21T19:13:23;7.53;;;2.03;;
40695;SDS011;40425;51.102;17.208;2022-08-21T19:18:28;4.28;;;2.55;;
40695;SDS011;40425;51.102;17.208;2022-08-21T19:23:32;5.60;;;2.47;;
40695;SDS011;40425;51.102;17.208;2022-08-21T19:28:37;4.05;;;2.67;;
40695;SDS011;40425;51.102;17.208;2022-08-21T19:33:48;4.43;;;2.92;;
40695;SDS011;40425;51.102;17.208;2022-08-21T19:38:59;5.75;;;3.30;;
40695;SDS011;40425;51.102;17.208;2022-08-21T19:44:03;6.25;;;3.05;;
40695;SDS011;40425;51.102;17.208;2022-08-21T19:49:09;7.88;;;3.58;;
40695;SDS011;40425;51.102;17.208;2022-08-21T19:54:17;5.20;;;3.92;;
40695;SDS011;40425;51.102;17.208;2022-08-21T19:59:24;8.23;;;4.20;;
40695;SDS011;40425;51.102;17.208;2022-08-21T20:04:28;5.30;;;3.65;;
40695;SDS011;40425;51.102;17.208;2022-08-21T20:09:31;5.40;;;3.63;;
40695;SDS011;40425;51.102;17.208;2022-08-21T20:14:38;6.40;;;4.18;;
40695;SDS011;40425;51.102;17.208;2022-08-21T20:19:45;5.15;;;3.40;;
40695;SDS011;40425;51.102;17.208;2022-08-21T20:24:51;8.00;;;4.18;;
40695;SDS011;40425;51.102;17.208;2022-08-21T20:29:53;9.10;;;3.92;;
40695;SDS011;40425;51.102;17.208;2022-08-21T20:34:54;9.25;;;4.85;;
40695;SDS011;40425;51.102;17.208;2022-08-21T20:39:55;6.57;;;4.32;;
40695;SDS011;40425;51.102;17.208;2022-08-21T20:44:57;6.25;;;4.32;;
40695;SDS011;40425;51.102;17.208;2022-08-21T20:50:02;8.10;;;5.00;;
40695;SDS011;40425;51.102;17.208;2022-08-21T20:55:11;7.85;;;5.20;;
40695;SDS011;40425;51.102;17.208;2022-08-21T21:00:17;5.33;;;4.80;;
40695;SDS011;40425;51.102;17.208;2022-08-21T21:10:55;11.00;;;7.60;;
40695;SDS011;40425;51.102;17.208;2022-08-21T21:16:09;10.38;;;6.45;;
40695;SDS011;40425;51.102;17.208;2022-08-21T21:26:33;12.88;;;7.85;;
40695;SDS011;40425;51.102;17.208;2022-08-21T21:31:40;10.70;;;7.68;;
40695;SDS011;40425;51.102;17.208;2022-08-21T21:36:43;11.45;;;8.10;;
40695;SDS011;40425;51.102;17.208;2022-08-21T22:03:12;15.65;;;9.88;;
40695;SDS011;40425;51.102;17.208;2022-08-21T22:13:32;13.55;;;9.10;;
40695;SDS011;40425;51.102;17.208;2022-08-21T22:18:52;13.32;;;8.98;;
40695;SDS011;40425;51.102;17.208;2022-08-21T22:24:16;15.63;;;7.50;;
40695;SDS011;40425;51.102;17.208;2022-08-21T22:29:22;13.25;;;9.70;;
40695;SDS011;40425;51.102;17.208;2022-08-21T22:34:23;13.05;;;10.05;;
40695;SDS011;40425;51.102;17.208;2022-08-21T22:39:29;15.23;;;10.88;;
40695;SDS011;40425;51.102;17.208;2022-08-21T22:44:32;16.35;;;11.75;;
40695;SDS011;40425;51.102;17.208;2022-08-21T22:54:45;22.60;;;12.60;;
40695;SDS011;40425;51.102;17.208;2022-08-21T23:00:33;16.08;;;10.48;;
40695;SDS011;40425;51.102;17.208;2022-08-21T23:05:30;14.77;;;9.63;;
40695;SDS011;40425;51.102;17.208;2022-08-21T23:10:38;9.98;;;8.02;;
40695;SDS011;40425;51.102;17.208;2022-08-21T23:21:09;16.05;;;8.82;;
40695;SDS011;40425;51.102;17.208;2022-08-21T23:26:28;13.27;;;9.77;;
40695;SDS011;40425;51.102;17.208;2022-08-21T23:37:15;16.88;;;10.88;;
40695;SDS011;40425;51.102;17.208;2022-08-21T23:48:16;18.73;;;11.65;;
